Time;durP1;ratioP1;P1;durP2;ratioP2;P2;SDS_P1;SDS_P2;PMS_P1;PMS_P2;Temp;Humidity;BMP_temperature;BMP_pressure;BME280_temperature;BME280_humidity;BME280_pressure;Samples;Min_cycle;Max_cycle;Signal;HPM_P1;HPM_P2
2022/10/31 00:01:16;;;;;;;10.73;6.95;;;;;;;13.14;86.12;101973.47;5080242;28;20490;-80
2022/10/31 00:03:42;;;;;;;11.43;7.30;;;;;;;13.08;85.91;101966.59;5073343;28;20119;-80
2022/10/31 00:06:07;;;;;;;11.93;6.63;;;;;;;13.06;85.88;101965.75;5075579;28;20032;-80
2022/10/31 00:08:32;;;;;;;14.38;7.47;;;;;;;13.00;85.90;101964.13;5077255;28;20029;-80
2022/10/31 00:10:58;;;;;;;12.50;7.18;;;;;;;12.92;85.36;101979.06;5074375;28;20075;-80
2022/10/31 00:13:23;;;;;;;10.90;6.57;;;;;;;12.85;85.05;101978.31;5073630;28;20017;-80
2022/10/31 00:15:48;;;;;;;10.73;6.82;;;;;;;12.82;85.60;101977.50;5075134;28;20039;-80
2022/10/31 00:18:13;;;;;;;14.73;6.97;;;;;;;12.80;85.61;101985.38;5075657;28;20464;-80
2022/10/31 00:20:39;;;;;;;13.20;6.78;;;;;;;12.78;85.69;101983.66;5075071;28;20035;-79
2022/10/31 00:23:06;;;;;;;10.98;6.65;;;;;;;12.74;85.51;101980.25;5075959;28;20512;-80
2022/10/31 00:25:39;;;;;;;10.10;6.55;;;;;;;12.67;85.93;101983.84;5077910;28;20017;-80
2022/10/31 00:28:06;;;;;;;11.25;7.03;;;;;;;12.64;86.33;101973.47;5072575;28;20029;-80
2022/10/31 00:30:32;;;;;;;11.23;7.03;;;;;;;12.59;85.52;101974.41;5076648;28;20024;-80
2022/10/31 00:32:57;;;;;;;10.30;6.70;;;;;;;12.55;85.50;101974.47;5072919;28;20392;-80
2022/10/31 00:35:22;;;;;;;11.18;6.88;;;;;;;12.51;85.82;101978.00;5075382;28;20020;-79
2022/10/31 00:37:47;;;;;;;10.13;6.43;;;;;;;12.49;85.47;101974.56;5072830;28;20046;-80
2022/10/31 00:40:13;;;;;;;14.60;7.97;;;;;;;12.46;85.74;101972.88;5073702;28;20294;-80
2022/10/31 00:42:41;;;;;;;14.20;7.35;;;;;;;12.40;85.97;101975.56;5079801;28;20024;-80
2022/10/31 00:45:10;;;;;;;12.32;7.00;;;;;;;12.36;86.08;101968.66;5081035;28;20467;-80
2022/10/31 00:47:35;;;;;;;12.80;6.80;;;;;;;12.33;86.12;101966.09;5076238;28;20479;-79
2022/10/31 00:50:00;;;;;;;9.40;6.40;;;;;;;12.29;86.25;101960.06;5075783;28;20020;-79
2022/10/31 00:52:26;;;;;;;10.10;6.13;;;;;;;12.26;86.71;101957.50;5074329;28;20029;-80
2022/10/31 00:54:51;;;;;;;9.45;6.07;;;;;;;12.24;86.14;101960.13;5073432;28;20298;-80
2022/10/31 00:57:16;;;;;;;12.57;7.28;;;;;;;12.21;86.48;101965.41;5077824;28;20031;-79
2022/10/31 00:59:41;;;;;;;8.57;6.00;;;;;;;12.18;85.85;101954.16;5079477;28;20025;-79
2022/10/31 01:02:06;;;;;;;8.93;6.50;;;;;;;12.16;85.99;101955.91;5081530;28;20028;-80
2022/10/31 01:04:32;;;;;;;9.95;6.50;;;;;;;12.12;85.87;101965.53;5072116;28;20020;-80
2022/10/31 01:06:58;;;;;;;11.60;7.22;;;;;;;12.08;86.08;101972.53;5080823;28;20399;-80
2022/10/31 01:09:23;;;;;;;10.70;6.18;;;;;;;12.06;85.35;101963.00;5079585;28;20498;-80
2022/10/31 01:11:48;;;;;;;12.02;6.45;;;;;;;12.01;85.20;101965.69;5073735;28;20111;-80
2022/10/31 01:14:14;;;;;;;10.52;6.00;;;;;;;11.95;85.49;101974.44;5072872;28;20039;-80
2022/10/31 01:16:39;;;;;;;9.57;5.70;;;;;;;11.93;85.46;101984.00;5075371;28;20592;-80
2022/10/31 01:19:04;;;;;;;8.50;5.80;;;;;;;11.86;84.71;101973.69;5087391;28;20028;-79
2022/10/31 01:21:29;;;;;;;9.23;5.78;;;;;;;11.82;85.33;101965.00;5075967;28;20033;-80
2022/10/31 01:23:55;;;;;;;16.02;6.60;;;;;;;11.80;85.81;101953.75;5079889;28;20098;-79
2022/10/31 01:26:24;;;;;;;9.65;6.25;;;;;;;11.77;85.50;101944.22;5081892;28;20027;-79
2022/10/31 01:28:56;;;;;;;7.72;5.30;;;;;;;11.73;85.19;101941.69;5079226;28;20474;-79
2022/10/31 01:31:24;;;;;;;10.27;5.82;;;;;;;11.68;85.79;101945.19;5067621;28;20037;-79
2022/10/31 01:33:49;;;;;;;8.13;5.28;;;;;;;11.65;85.19;101945.22;5068239;28;20036;-79
2022/10/31 01:36:21;;;;;;;10.10;5.55;;;;;;;11.63;84.85;101952.22;5076094;28;20028;-79
2022/10/31 01:38:48;;;;;;;8.95;5.38;;;;;;;11.57;84.80;101952.31;5092511;28;20428;-79
2022/10/31 01:41:18;;;;;;;8.63;5.60;;;;;;;11.52;85.49;101951.47;5088163;28;20040;-80
2022/10/31 01:43:47;;;;;;;10.70;6.00;;;;;;;11.45;85.60;101950.69;5073121;28;20122;-80
2022/10/31 01:46:13;;;;;;;7.80;5.43;;;;;;;11.44;85.01;101950.72;5075378;28;20437;-79
2022/10/31 01:48:40;;;;;;;8.30;5.40;;;;;;;11.41;83.95;101958.56;5074491;28;20483;-80
2022/10/31 01:51:07;;;;;;;7.53;5.07;;;;;;;11.35;84.03;101962.97;5081373;28;20036;-79
2022/10/31 01:53:33;;;;;;;8.63;5.22;;;;;;;11.33;84.93;101964.72;5073108;28;20035;-80
2022/10/31 01:55:59;;;;;;;9.50;5.63;;;;;;;11.32;85.44;101962.16;5071535;28;20040;-79
2022/10/31 01:58:30;;;;;;;8.23;5.38;;;;;;;11.29;85.45;101962.16;5074508;28;20028;-79
2022/10/31 02:00:58;;;;;;;8.38;5.47;;;;;;;11.28;86.04;101963.03;5081291;28;20122;-79
2022/10/31 02:03:26;;;;;;;9.90;5.75;;;;;;;11.28;86.18;101960.44;5072871;28;20497;-79
2022/10/31 02:05:54;;;;;;;8.40;5.28;;;;;;;11.26;85.89;101960.47;5072153;28;20024;-79
2022/10/31 02:08:26;;;;;;;10.63;6.20;;;;;;;11.28;86.40;101960.44;5075166;28;20135;-79
2022/10/31 02:10:51;;;;;;;;;;;;;;;11.33;85.25;101958.66;5069754;28;20509;-80
2022/10/31 02:13:17;;;;;;;8.65;5.75;;;;;;;11.28;85.94;101961.28;5074395;28;19920;-79
2022/10/31 02:15:45;;;;;;;11.55;5.88;;;;;;;11.28;85.96;101955.22;5072809;28;20020;-80
2022/10/31 02:18:11;;;;;;;12.65;6.43;;;;;;;11.27;86.14;101948.28;5071275;28;20055;-79
2022/10/31 02:20:48;;;;;;;11.10;6.40;;;;;;;11.25;86.30;101948.31;5072569;28;20071;-79
2022/10/31 02:23:22;;;;;;;12.82;7.18;;;;;;;11.20;85.86;101953.56;5071087;28;20029;-79
2022/10/31 02:26:19;;;;;;;11.25;6.57;;;;;;;11.17;86.00;101953.63;5068506;28;20086;-80
2022/10/31 02:28:50;;;;;;;11.13;6.70;;;;;;;11.13;86.02;101953.63;5070795;28;20028;-79
2022/10/31 02:31:56;;;;;;;8.90;5.55;;;;;;;11.06;84.95;101950.22;5069970;28;20029;-79
2022/10/31 02:34:33;;;;;;;8.93;5.88;;;;;;;10.99;84.53;101946.84;5059091;28;20073;-79
2022/10/31 02:37:13;;;;;;;9.13;5.65;;;;;;;10.91;83.87;101946.91;5070283;28;20025;-79
2022/10/31 02:39:52;;;;;;;7.05;5.20;;;;;;;10.87;84.20;101946.97;5068075;28;20032;-79
2022/10/31 02:42:39;;;;;;;7.50;5.00;;;;;;;10.85;84.51;101946.09;5068274;28;20444;-79
2022/10/31 02:45:11;;;;;;;7.10;4.60;;;;;;;10.81;84.51;101949.59;5069847;28;20024;-79
2022/10/31 02:47:38;;;;;;;7.55;4.93;;;;;;;10.76;84.24;101942.69;5070926;28;20025;-79
2022/10/31 02:50:08;;;;;;;8.15;4.65;;;;;;;10.71;83.36;101957.50;5069718;28;20443;-79
2022/10/31 02:52:34;;;;;;;8.82;4.70;;;;;;;10.65;82.73;101949.72;5069955;28;20055;-79
2022/10/31 02:55:32;;;;;;;7.72;5.28;;;;;;;10.61;83.67;101950.63;5068821;28;20012;-79
2022/10/31 02:58:07;;;;;;;7.50;4.95;;;;;;;10.57;83.78;101948.94;5070465;28;20029;-79
2022/10/31 03:00:42;;;;;;;8.70;5.65;;;;;;;10.55;84.13;101946.34;5075060;28;20061;-79
2022/10/31 03:03:33;;;;;;;10.63;5.38;;;;;;;10.56;85.50;101944.63;5067480;28;20081;-79
2022/10/31 03:06:06;;;;;;;11.00;6.15;;;;;;;10.60;85.93;101938.50;5069993;28;20037;-79
2022/10/31 03:08:57;;;;;;;8.20;5.68;;;;;;;10.62;85.86;101948.03;5067074;28;20036;-80
2022/10/31 03:11:29;;;;;;;8.02;5.40;;;;;;;10.66;86.38;101954.06;5068189;28;20672;-79
2022/10/31 03:14:03;;;;;;;8.82;5.63;;;;;;;10.66;86.38;101956.66;5074161;28;20024;-79
2022/10/31 03:16:38;;;;;;;10.27;6.00;;;;;;;10.69;86.55;101953.16;5069081;28;20024;-79
2022/10/31 03:19:16;;;;;;;10.18;5.70;;;;;;;10.68;87.00;101954.94;5069858;28;20094;-79
2022/10/31 03:21:47;;;;;;;8.75;5.70;;;;;;;10.68;87.01;101949.72;5070347;28;20020;-79
2022/10/31 03:24:14;;;;;;;8.90;5.95;;;;;;;10.70;86.63;101950.56;5077368;28;20480;-79
2022/10/31 03:26:47;;;;;;;8.60;5.72;;;;;;;10.68;86.63;101949.72;5080316;28;20032;-79
2022/10/31 03:29:15;;;;;;;8.05;5.53;;;;;;;10.67;87.01;101952.34;5069126;28;20033;-79
2022/10/31 03:31:56;;;;;;;9.30;6.15;;;;;;;10.67;87.24;101942.78;5069481;28;20085;-79
2022/10/31 03:34:22;;;;;;;10.90;6.35;;;;;;;10.69;87.49;101941.03;5077587;28;20438;-79
2022/10/31 03:36:51;;;;;;;11.45;6.32;;;;;;;10.68;87.69;101939.31;5072501;28;20028;-79
2022/10/31 03:39:20;;;;;;;10.38;5.70;;;;;;;10.69;87.53;101941.03;5080584;28;20060;-79
2022/10/31 03:41:53;;;;;;;9.50;5.20;;;;;;;10.68;87.58;101941.91;5083114;28;20027;-79
2022/10/31 03:44:22;;;;;;;8.20;5.38;;;;;;;10.67;87.81;101942.78;5088567;28;20032;-79
2022/10/31 03:46:48;;;;;;;9.10;5.40;;;;;;;10.67;87.23;101942.78;5075307;28;20103;-79
2022/10/31 03:49:14;;;;;;;10.27;6.10;;;;;;;10.68;87.27;101941.91;5079209;28;20055;-79
2022/10/31 03:51:50;;;;;;;9.20;5.75;;;;;;;10.65;87.65;101941.09;5073827;28;20112;-79
2022/10/31 03:54:22;;;;;;;10.90;6.20;;;;;;;10.61;87.39;101946.31;5075309;28;20403;-79
2022/10/31 03:56:55;;;;;;;11.40;6.25;;;;;;;10.60;87.39;101954.09;5075836;28;20032;-79
2022/10/31 03:59:34;;;;;;;9.88;6.18;;;;;;;10.57;87.36;101949.81;5078994;28;20020;-79
2022/10/31 04:02:05;;;;;;;10.60;6.00;;;;;;;10.56;87.00;101942.03;5073065;28;20205;-79
2022/10/31 04:04:32;;;;;;;;;;;;;;;10.57;85.85;101943.75;5081733;28;20032;-79
2022/10/31 04:07:00;;;;;;;7.03;4.30;;;;;;;10.49;86.71;101946.41;5072294;28;19973;-79
2022/10/31 04:09:27;;;;;;;5.13;3.65;;;;;;;10.44;86.56;101941.22;5069739;28;20488;-79
2022/10/31 04:11:56;;;;;;;9.00;4.03;;;;;;;10.36;85.76;101950.81;5066714;28;20558;-79
2022/10/31 04:14:25;;;;;;;6.10;3.42;;;;;;;10.33;85.77;101954.25;5075532;28;20158;-79
2022/10/31 04:16:50;;;;;;;5.75;3.90;;;;;;;10.23;84.71;101950.00;5066771;28;20471;-79
2022/10/31 04:19:16;;;;;;;5.07;3.85;;;;;;;10.17;84.70;101950.03;5072432;28;20036;-79
2022/10/31 04:21:43;;;;;;;4.97;3.70;;;;;;;10.13;84.74;101946.59;5079096;28;20032;-79
2022/10/31 04:24:08;;;;;;;4.95;3.22;;;;;;;10.08;84.17;101950.09;5076474;28;20054;-79
2022/10/31 04:26:34;;;;;;;4.43;2.80;;;;;;;10.05;84.04;101951.00;5069510;28;20097;-79
2022/10/31 04:28:59;;;;;;;3.58;2.40;;;;;;;10.02;84.07;101945.81;5079152;28;20016;-79
2022/10/31 04:31:25;;;;;;;5.18;3.45;;;;;;;10.04;85.92;101941.47;5084819;28;20036;-80
2022/10/31 04:33:50;;;;;;;6.85;4.38;;;;;;;10.07;86.54;101945.78;5071386;28;20028;-79
2022/10/31 04:36:15;;;;;;;6.25;4.22;;;;;;;10.07;86.59;101935.38;5071320;28;20017;-79
2022/10/31 04:38:40;;;;;;;6.45;4.45;;;;;;;10.06;86.79;101939.72;5073943;28;20035;-79
2022/10/31 04:41:06;;;;;;;5.20;3.90;;;;;;;10.06;85.74;101936.25;5072298;28;20047;-79
2022/10/31 04:43:31;;;;;;;6.40;3.53;;;;;;;10.02;84.91;101948.41;5072099;28;20032;-79
2022/10/31 04:45:56;;;;;;;5.40;3.50;;;;;;;10.00;84.62;101940.59;5073569;28;20021;-79
2022/10/31 04:48:22;;;;;;;5.18;3.22;;;;;;;9.99;85.29;101935.41;5074683;28;20115;-79
2022/10/31 04:50:47;;;;;;;6.90;3.35;;;;;;;9.98;86.21;101937.19;5074423;28;20423;-79
2022/10/31 04:53:12;;;;;;;6.10;3.42;;;;;;;10.02;86.41;101943.22;5072660;28;20036;-79
2022/10/31 04:55:37;;;;;;;5.80;3.47;;;;;;;10.01;86.27;101947.53;5089815;28;20028;-79
2022/10/31 04:58:03;;;;;;;4.72;3.70;;;;;;;10.03;86.55;101943.19;5080953;28;20047;-79
2022/10/31 05:00:28;;;;;;;5.07;3.70;;;;;;;10.03;86.64;101944.94;5081503;28;20029;-79
2022/10/31 05:02:56;;;;;;;6.55;3.90;;;;;;;10.01;86.67;101933.69;5077390;28;20028;-79
2022/10/31 05:05:25;;;;;;;7.25;4.07;;;;;;;10.02;87.06;101932.81;5080698;28;20032;-79
2022/10/31 05:07:50;;;;;;;8.60;4.47;;;;;;;10.03;87.06;101929.34;5077520;28;20032;-79
2022/10/31 05:10:18;;;;;;;8.77;4.80;;;;;;;10.04;87.43;101923.28;5079647;28;20410;-79
2022/10/31 05:12:58;;;;;;;10.52;4.72;;;;;;;10.03;87.49;101932.78;5071740;28;20031;-79
2022/10/31 05:15:25;;;;;;;7.18;4.25;;;;;;;10.00;86.36;101927.59;5074617;28;20032;-79
2022/10/31 05:17:51;;;;;;;6.30;4.10;;;;;;;9.97;85.75;101929.38;5072749;28;20067;-79
2022/10/31 05:20:18;;;;;;;5.95;4.10;;;;;;;9.96;86.33;101922.44;5074558;28;20033;-79
2022/10/31 05:22:46;;;;;;;5.63;3.35;;;;;;;9.93;85.54;101928.53;5083707;28;20368;-79
2022/10/31 05:25:12;;;;;;;7.47;3.30;;;;;;;9.92;85.81;101925.91;5082182;28;20032;-79
2022/10/31 05:27:42;;;;;;;4.45;2.88;;;;;;;9.90;85.88;101928.53;5074419;28;20031;-79
2022/10/31 05:30:09;;;;;;;4.35;3.00;;;;;;;9.84;84.52;101939.84;5073142;28;20084;-79
2022/10/31 05:32:39;;;;;;;5.05;3.15;;;;;;;9.80;84.59;101929.47;5073782;28;20020;-79
2022/10/31 05:35:08;;;;;;;7.22;3.17;;;;;;;9.79;85.79;101931.19;5066398;28;20032;-79
2022/10/31 05:37:34;;;;;;;4.10;3.03;;;;;;;9.78;85.91;101929.47;5069159;28;20027;-79
2022/10/31 05:39:59;;;;;;;5.28;2.90;;;;;;;9.77;85.78;101919.94;5071567;28;20031;-79
2022/10/31 05:42:24;;;;;;;6.70;2.83;;;;;;;9.76;85.69;101926.00;5072463;28;20075;-79
2022/10/31 05:44:49;;;;;;;4.13;2.70;;;;;;;9.77;85.87;101922.53;5069243;28;20032;-79
2022/10/31 05:47:15;;;;;;;6.35;3.10;;;;;;;9.77;86.22;101916.47;5069138;28;20129;-79
2022/10/31 05:49:40;;;;;;;6.18;3.90;;;;;;;9.77;86.29;101912.13;5072150;28;20020;-79
2022/10/31 05:52:05;;;;;;;6.60;3.83;;;;;;;9.75;86.77;101911.28;5068236;28;20028;-79
2022/10/31 05:54:30;;;;;;;6.55;3.50;;;;;;;9.75;86.36;101910.44;5076773;28;20075;-79
2022/10/31 05:56:56;;;;;;;5.90;3.50;;;;;;;9.74;86.29;101906.94;5074032;28;20372;-79
2022/10/31 05:59:21;;;;;;;6.20;3.50;;;;;;;9.73;85.98;101907.84;5071867;28;20471;-79
2022/10/31 06:01:46;;;;;;;6.22;3.83;;;;;;;9.72;85.50;101908.72;5069893;28;20024;-79
2022/10/31 06:04:11;;;;;;;7.68;4.63;;;;;;;9.69;85.42;101906.97;5076049;28;20032;-79
2022/10/31 06:06:37;;;;;;;8.98;4.93;;;;;;;9.67;84.76;101906.13;5073466;28;20538;-79
2022/10/31 06:09:02;;;;;;;8.50;5.25;;;;;;;9.65;84.55;101912.19;5076515;28;20040;-79
2022/10/31 06:11:27;;;;;;;8.70;4.82;;;;;;;9.64;85.05;101907.88;5073966;28;20071;-79
2022/10/31 06:13:52;;;;;;;11.05;5.10;;;;;;;9.63;85.90;101899.22;5079189;28;20029;-79
2022/10/31 06:16:18;;;;;;;7.03;4.07;;;;;;;9.62;85.40;101909.63;5075919;28;20040;-79
2022/10/31 06:18:43;;;;;;;8.18;4.65;;;;;;;9.59;84.46;101902.72;5073383;28;20037;-79
2022/10/31 06:21:08;;;;;;;8.05;5.07;;;;;;;9.61;85.95;101902.69;5076890;28;20040;-79
2022/10/31 06:23:33;;;;;;;8.65;5.13;;;;;;;9.60;86.27;101899.25;5074672;28;20365;-79
2022/10/31 06:25:59;;;;;;;11.35;5.78;;;;;;;9.62;86.60;101907.91;5081071;28;20025;-79
2022/10/31 06:28:24;;;;;;;8.32;5.53;;;;;;;9.59;86.71;101910.50;5072446;28;20446;-79
2022/10/31 06:30:49;;;;;;;13.57;6.38;;;;;;;9.56;86.69;101900.97;5086804;28;20073;-79
2022/10/31 06:33:14;;;;;;;12.60;6.70;;;;;;;9.55;87.06;101903.59;5085708;28;20031;-79
2022/10/31 06:35:45;;;;;;;9.32;5.28;;;;;;;9.51;86.20;101899.25;5086154;28;20383;-79
2022/10/31 06:38:10;;;;;;;10.93;5.77;;;;;;;9.52;86.67;101898.41;5071103;28;20033;-79
2022/10/31 06:40:36;;;;;;;9.35;5.13;;;;;;;9.49;86.16;101899.28;5072061;28;20032;-79
2022/10/31 06:43:01;;;;;;;8.93;4.82;;;;;;;9.48;86.28;101900.16;5069742;28;20048;-79
2022/10/31 06:45:27;;;;;;;8.00;4.93;;;;;;;9.49;86.22;101907.06;5074330;28;20387;-79
2022/10/31 06:47:54;;;;;;;6.55;4.20;;;;;;;9.52;86.37;101909.66;5073771;28;20028;-80
2022/10/31 06:50:20;;;;;;;6.15;3.92;;;;;;;9.53;86.25;101913.13;5084388;28;20028;-80
2022/10/31 06:52:55;;;;;;;4.90;3.30;;;;;;;9.55;86.07;101911.38;5071050;28;20032;-79
2022/10/31 06:55:22;;;;;;;3.97;2.95;;;;;;;9.55;86.18;101917.47;5069361;28;20474;-80
2022/10/31 06:57:52;;;;;;;4.63;3.25;;;;;;;9.57;86.43;101918.28;5079041;28;20387;-80
2022/10/31 07:00:18;;;;;;;5.45;3.25;;;;;;;9.60;86.80;101911.34;5077600;28;20027;-79
2022/10/31 07:02:43;;;;;;;7.53;4.18;;;;;;;9.64;86.79;101915.66;5075234;28;20028;-79
2022/10/31 07:05:08;;;;;;;11.70;4.85;;;;;;;9.68;87.31;101914.78;5078370;28;20535;-79
2022/10/31 07:07:34;;;;;;;9.65;4.65;;;;;;;9.66;87.32;101903.53;5080545;28;20036;-80
2022/10/31 07:09:59;;;;;;;10.20;4.65;;;;;;;9.69;87.37;101903.53;5084148;28;20600;-79
2022/10/31 07:12:24;;;;;;;8.27;4.72;;;;;;;9.70;86.95;101905.25;5077762;28;20067;-79
2022/10/31 07:14:49;;;;;;;9.80;4.40;;;;;;;9.72;87.19;101903.53;5084437;28;20030;-80
2022/10/31 07:17:15;;;;;;;7.35;4.70;;;;;;;9.72;87.19;101901.78;5081470;28;20467;-79
2022/10/31 07:19:41;;;;;;;9.30;4.78;;;;;;;9.77;87.41;101900.91;5080597;28;20036;-79
2022/10/31 07:22:06;;;;;;;17.38;4.97;;;;;;;9.83;87.99;101906.03;5078481;28;20490;-81
2022/10/31 07:24:31;;;;;;;13.23;5.13;;;;;;;9.87;88.10;101906.03;5076319;28;20035;-80
2022/10/31 07:26:56;;;;;;;10.65;5.63;;;;;;;9.93;88.11;101904.25;5081941;28;20029;-79
2022/10/31 07:29:22;;;;;;;11.40;5.15;;;;;;;9.98;88.06;101910.28;5083736;28;20035;-80
2022/10/31 07:31:47;;;;;;;9.93;5.55;;;;;;;10.02;88.49;101912.00;5079065;28;20036;-80
2022/10/31 07:34:12;;;;;;;9.70;4.93;;;;;;;10.06;88.58;101913.72;5078637;28;20036;-80
2022/10/31 07:36:37;;;;;;;8.57;5.13;;;;;;;10.10;88.55;101911.97;5069466;28;20044;-79
2022/10/31 07:39:03;;;;;;;7.80;4.85;;;;;;;10.13;88.78;101914.56;5074671;28;20043;-79
2022/10/31 07:41:28;;;;;;;10.00;6.00;;;;;;;10.17;89.28;101911.91;5076017;28;20845;-79
2022/10/31 07:43:53;;;;;;;8.93;5.63;;;;;;;10.23;89.08;101916.19;5075018;28;20487;-79
2022/10/31 07:46:18;;;;;;;9.13;5.75;;;;;;;10.28;89.53;101930.03;5076345;28;20028;-80
2022/10/31 07:48:44;;;;;;;9.55;6.65;;;;;;;10.35;89.67;101929.97;5075223;28;20089;-79
2022/10/31 07:51:09;;;;;;;12.50;7.57;;;;;;;10.39;90.20;101932.59;5075527;28;20040;-80
2022/10/31 07:53:34;;;;;;;13.80;7.90;;;;;;;10.45;90.47;101926.50;5077344;28;20036;-79
2022/10/31 07:55:59;;;;;;;14.35;8.70;;;;;;;10.52;91.08;101924.69;5078400;28;20483;-80
2022/10/31 07:58:25;;;;;;;14.68;9.20;;;;;;;10.59;91.21;101931.59;5077196;28;20151;-80
2022/10/31 08:00:50;;;;;;;17.33;9.60;;;;;;;10.63;91.44;101926.34;5074896;28;20490;-79
2022/10/31 08:03:18;;;;;;;19.35;10.07;;;;;;;10.68;92.03;101918.50;5075314;28;20066;-79
2022/10/31 08:05:47;;;;;;;18.58;11.07;;;;;;;10.73;92.24;101929.72;5077483;28;20032;-79
2022/10/31 08:08:13;;;;;;;17.90;11.20;;;;;;;10.78;92.46;101925.31;5072954;28;20480;-80
2022/10/31 08:10:40;;;;;;;18.75;11.75;;;;;;;10.85;92.67;101920.91;5080308;28;20055;-80
2022/10/31 08:13:09;;;;;;;20.35;11.88;;;;;;;10.91;93.02;101923.47;5080856;28;20051;-78
2022/10/31 08:15:37;;;;;;;19.70;11.65;;;;;;;10.98;93.60;101919.06;5081869;28;20071;-79
2022/10/31 08:18:03;;;;;;;19.00;11.98;;;;;;;11.04;93.79;101925.94;5076119;28;20020;-79
2022/10/31 08:20:29;;;;;;;16.90;11.30;;;;;;;11.08;93.85;101931.13;5081267;28;20039;-80
2022/10/31 08:23:04;;;;;;;19.13;12.00;;;;;;;11.15;94.19;101926.72;5075987;28;20032;-80
2022/10/31 08:25:32;;;;;;;20.58;12.13;;;;;;;11.22;94.19;101924.91;5079505;28;20503;-79
2022/10/31 08:27:57;;;;;;;19.42;12.20;;;;;;;11.29;94.64;101925.69;5075770;28;20028;-80
2022/10/31 08:30:26;;;;;;;19.98;11.77;;;;;;;11.37;94.89;101918.63;5080800;28;20035;-79
2022/10/31 08:33:14;;;;;;;21.13;11.80;;;;;;;11.47;95.39;101914.19;5081245;28;20119;-80
2022/10/31 08:35:39;;;;;;;20.15;12.35;;;;;;;11.57;95.16;101905.38;5079854;28;20407;-79
2022/10/31 08:38:05;;;;;;;20.25;12.10;;;;;;;11.66;95.34;101893.97;5078394;28;20034;-79
2022/10/31 08:40:32;;;;;;;22.05;12.27;;;;;;;11.76;95.58;101892.97;5078035;28;20033;-80
2022/10/31 08:43:04;;;;;;;18.77;11.10;;;;;;;11.86;96.19;101898.91;5075541;28;20029;-79
2022/10/31 08:45:31;;;;;;;21.45;12.43;;;;;;;11.98;96.28;101898.75;5078310;28;20028;-79
2022/10/31 08:48:02;;;;;;;18.95;11.65;;;;;;;12.10;96.19;101904.69;5075218;28;20032;-79
2022/10/31 08:50:29;;;;;;;20.83;12.00;;;;;;;12.21;96.21;101899.31;5079519;28;20098;-79
2022/10/31 08:53:04;;;;;;;20.67;11.60;;;;;;;12.29;96.08;101897.44;5083988;28;20110;-79
2022/10/31 08:55:29;;;;;;;20.85;11.55;;;;;;;12.33;95.63;101893.91;5078421;28;20034;-78
2022/10/31 08:57:56;;;;;;;19.02;11.38;;;;;;;12.38;95.60;101880.78;5073866;28;20024;-78
2022/10/31 09:00:22;;;;;;;18.80;10.88;;;;;;;12.41;95.37;101857.25;5077742;28;20071;-78
2022/10/31 09:02:47;;;;;;;22.08;12.50;;;;;;;12.43;95.06;101835.44;5074861;28;20119;-79
2022/10/31 09:05:12;;;;;;;21.40;11.80;;;;;;;12.45;95.30;101838.03;5077205;28;20483;-78
2022/10/31 09:07:37;;;;;;;21.05;11.82;;;;;;;12.48;95.48;101847.56;5078093;28;20078;-79
2022/10/31 09:10:03;;;;;;;21.48;12.25;;;;;;;12.49;95.38;101847.50;5078831;28;20060;-79
2022/10/31 09:12:28;;;;;;;21.20;11.98;;;;;;;12.54;95.57;101863.97;5080575;28;20101;-79
2022/10/31 09:14:53;;;;;;;21.52;12.32;;;;;;;12.58;95.73;101860.41;5076388;28;20119;-79
2022/10/31 09:17:19;;;;;;;23.42;11.45;;;;;;;12.62;95.45;101860.38;5080900;28;20029;-78
2022/10/31 09:19:44;;;;;;;23.83;12.85;;;;;;;12.65;95.28;101849.84;5077568;28;20111;-79
2022/10/31 09:22:09;;;;;;;22.90;12.52;;;;;;;12.68;95.44;101845.44;5078638;28;20032;-79
2022/10/31 09:24:34;;;;;;;22.35;12.80;;;;;;;12.73;96.12;101846.19;5078849;28;20024;-79
2022/10/31 09:26:59;;;;;;;25.23;13.25;;;;;;;12.82;96.63;101883.50;5078289;28;20059;-79
2022/10/31 09:29:25;;;;;;;25.75;13.57;;;;;;;12.94;97.45;101892.84;5077887;28;20058;-78
2022/10/31 09:31:50;;;;;;;24.27;12.95;;;;;;;13.06;97.65;101871.72;5077681;28;20040;-78
2022/10/31 09:34:15;;;;;;;22.77;13.13;;;;;;;13.14;97.39;101856.75;5085220;28;20475;-78
2022/10/31 09:36:42;;;;;;;24.80;13.35;;;;;;;13.23;96.33;101853.09;5079453;28;20028;-79
2022/10/31 09:39:08;;;;;;;24.52;13.25;;;;;;;13.28;95.92;101850.38;5076638;28;20031;-79
2022/10/31 09:41:56;;;;;;;24.08;13.80;;;;;;;13.33;96.12;101851.13;5080204;28;20080;-78
2022/10/31 09:44:38;;;;;;;23.65;13.40;;;;;;;13.39;95.56;101852.78;5077503;28;20024;-79
2022/10/31 09:47:27;;;;;;;24.45;14.68;;;;;;;13.41;94.99;101825.75;5075701;28;20038;-79
2022/10/31 09:50:06;;;;;;;23.75;13.65;;;;;;;13.44;95.42;101812.59;5076360;28;20616;-78
2022/10/31 09:52:38;;;;;;;23.88;13.60;;;;;;;13.47;95.19;101804.69;5078082;28;20035;-78
2022/10/31 09:55:13;;;;;;;23.27;13.70;;;;;;;13.48;94.79;101816.00;5074864;28;20037;-78
2022/10/31 09:57:41;;;;;;;24.70;14.50;;;;;;;13.48;94.50;101813.38;5075134;28;20078;-79
2022/10/31 10:00:14;;;;;;;27.10;14.98;;;;;;;13.47;94.81;101804.69;5072331;28;20028;-79
2022/10/31 10:02:51;;;;;;;27.05;15.77;;;;;;;13.48;95.04;101809.03;5074168;28;20111;-78
2022/10/31 10:05:41;;;;;;;25.27;15.40;;;;;;;13.49;95.01;101805.50;5074596;28;20454;-79
2022/10/31 10:08:19;;;;;;;27.73;16.23;;;;;;;13.53;95.10;101808.06;5076444;28;20487;-78
2022/10/31 10:10:54;;;;;;;24.52;15.68;;;;;;;13.56;94.93;101808.00;5072796;28;20036;-78
2022/10/31 10:13:49;;;;;;;28.58;16.48;;;;;;;13.60;94.67;101815.72;5082238;28;20032;-79
2022/10/31 10:16:33;;;;;;;26.63;15.65;;;;;;;13.62;94.63;101807.84;5057505;28;20036;-78
2022/10/31 10:19:04;;;;;;;25.67;15.60;;;;;;;13.68;95.06;101802.47;5080291;28;20028;-79
2022/10/31 10:21:45;;;;;;;27.40;15.95;;;;;;;13.77;94.92;101801.38;5079298;28;20090;-79
2022/10/31 10:24:49;;;;;;;25.92;15.98;;;;;;;13.86;94.74;101787.22;5079618;28;20088;-79
2022/10/31 10:27:37;;;;;;;24.00;15.60;;;;;;;13.94;94.42;101778.31;5078694;28;20479;-79
2022/10/31 10:30:12;;;;;;;29.58;16.05;;;;;;;13.99;93.69;101770.38;5084270;28;20077;-79
2022/10/31 10:32:54;;;;;;;31.77;16.58;;;;;;;14.05;93.72;101772.81;5087268;28;20024;-79
2022/10/31 10:35:25;;;;;;;;;;;;;;;14.10;92.66;101768.31;5086692;28;20059;-78
2022/10/31 10:37:57;;;;;;;25.23;15.50;;;;;;;14.15;93.33;101767.34;5083573;28;19924;-79
2022/10/31 10:40:28;;;;;;;26.30;15.60;;;;;;;14.18;93.30;101762.88;5077560;28;20024;-79
2022/10/31 10:43:24;;;;;;;27.17;15.73;;;;;;;14.23;93.39;101749.66;5076166;28;20081;-80
2022/10/31 10:49:29;;;;;;;25.83;15.10;;;;;;;14.37;93.20;101734.44;5074086;28;20085;-79
2022/10/31 10:52:02;;;;;;;30.23;16.58;;;;;;;14.44;93.15;101723.81;5069770;28;20147;-79
2022/10/31 10:54:42;;;;;;;28.10;16.98;;;;;;;14.52;92.94;101732.31;5070779;28;20029;-79
2022/10/31 10:57:30;;;;;;;31.88;17.38;;;;;;;14.57;92.29;101740.91;5074773;28;20035;-78
2022/10/31 10:59:58;;;;;;;31.52;16.63;;;;;;;14.61;92.04;101742.53;5070844;28;20048;-79
2022/10/31 11:02:26;;;;;;;27.13;17.02;;;;;;;14.65;92.03;101743.31;5075877;28;20058;-79
2022/10/31 11:04:55;;;;;;;31.63;17.42;;;;;;;14.72;92.29;101735.25;5072486;28;20132;-79
2022/10/31 11:07:21;;;;;;;28.92;16.90;;;;;;;14.79;91.67;101733.31;5086318;28;20412;-79
2022/10/31 11:09:46;;;;;;;28.45;16.90;;;;;;;14.84;91.70;101718.31;5078153;28;20039;-80
2022/10/31 11:12:18;;;;;;;29.65;17.08;;;;;;;14.90;91.40;101712.03;5075692;28;20052;-80
2022/10/31 11:14:53;;;;;;;28.65;17.38;;;;;;;14.93;91.16;101722.44;5076208;28;20039;-79
2022/10/31 11:17:30;;;;;;;29.85;17.35;;;;;;;14.95;91.00;101725.88;5077774;28;20024;-79
2022/10/31 11:20:22;;;;;;;29.63;17.70;;;;;;;14.98;91.09;101725.78;5081009;28;20028;-79
2022/10/31 11:22:48;;;;;;;28.17;16.92;;;;;;;15.05;90.51;101721.22;5072597;28;20028;-79
2022/10/31 11:25:24;;;;;;;29.35;17.50;;;;;;;15.12;90.52;101712.25;5074776;28;20566;-79
2022/10/31 11:28:03;;;;;;;30.85;16.85;;;;;;;15.18;90.14;101713.84;5075038;28;20027;-78
2022/10/31 11:30:30;;;;;;;31.73;17.10;;;;;;;15.20;89.67;101712.00;5070408;28;20059;-80
2022/10/31 11:32:56;;;;;;;28.23;17.42;;;;;;;15.25;89.88;101707.47;5072376;28;20024;-80
2022/10/31 11:35:24;;;;;;;30.02;17.30;;;;;;;15.30;89.16;101699.47;5072601;28;20165;-79